sensor_id;sensor_type;location;lat;lon;timestamp;temperature;humidity
13464;DHT22;6804;48.774;9.174;2024-03-25T00:00:00;7.60;99.90
13464;DHT22;6804;48.774;9.174;2024-03-25T00:02:26;7.50;99.90
13464;DHT22;6804;48.774;9.174;2024-03-25T00:05:15;7.50;99.90
13464;DHT22;6804;48.774;9.174;2024-03-25T00:07:50;7.60;99.90
13464;DHT22;6804;48.774;9.174;2024-03-25T00:10:20;7.50;99.90
13464;DHT22;6804;48.774;9.174;2024-03-25T00:12:50;7.50;99.90
13464;DHT22;6804;48.774;9.174;2024-03-25T00:15:23;7.50;99.90
13464;DHT22;6804;48.774;9.174;2024-03-25T00:17:52;7.50;99.90
13464;DHT22;6804;48.774;9.174;2024-03-25T00:20:21;7.60;99.90
13464;DHT22;6804;48.774;9.174;2024-03-25T00:22:47;7.60;99.90
13464;DHT22;6804;48.774;9.174;2024-03-25T00:25:20;7.60;99.90
13464;DHT22;6804;48.774;9.174;2024-03-25T00:27:47;7.60;99.90
13464;DHT22;6804;48.774;9.174;2024-03-25T00:30:17;7.60;99.90
13464;DHT22;6804;48.774;9.174;2024-03-25T00:32:47;7.60;99.90
13464;DHT22;6804;48.774;9.174;2024-03-25T00:35:15;7.60;99.90
13464;DHT22;6804;48.774;9.174;2024-03-25T00:37:42;7.50;99.90
13464;DHT22;6804;48.774;9.174;2024-03-25T00:40:13;7.50;99.90
13464;DHT22;6804;48.774;9.174;2024-03-25T00:42:42;7.40;99.90
13464;DHT22;6804;48.774;9.174;2024-03-25T00:45:10;7.40;99.90
13464;DHT22;6804;48.774;9.174;2024-03-25T00:47:56;7.40;99.90
13464;DHT22;6804;48.774;9.174;2024-03-25T00:50:33;7.40;99.90
13464;DHT22;6804;48.774;9.174;2024-03-25T00:53:01;7.40;99.90
13464;DHT22;6804;48.774;9.174;2024-03-25T00:55:29;7.40;99.90
13464;DHT22;6804;48.774;9.174;2024-03-25T00:57:56;7.40;99.90
13464;DHT22;6804;48.774;9.174;2024-03-25T01:00:25;7.40;99.90
13464;DHT22;6804;48.774;9.174;2024-03-25T01:02:52;7.40;99.90
13464;DHT22;6804;48.774;9.174;2024-03-25T01:05:24;7.50;99.90
13464;DHT22;6804;48.774;9.174;2024-03-25T01:07:52;7.40;99.90
13464;DHT22;6804;48.774;9.174;2024-03-25T01:10:22;7.40;99.90
13464;DHT22;6804;48.774;9.174;2024-03-25T01:12:49;7.40;99.90
13464;DHT22;6804;48.774;9.174;2024-03-25T01:15:17;7.40;99.90
13464;DHT22;6804;48.774;9.174;2024-03-25T01:17:44;7.40;99.90
13464;DHT22;6804;48.774;9.174;2024-03-25T01:20:11;7.30;99.90
13464;DHT22;6804;48.774;9.174;2024-03-25T01:22:42;7.30;99.90
13464;DHT22;6804;48.774;9.174;2024-03-25T01:25:10;7.40;99.90
13464;DHT22;6804;48.774;9.174;2024-03-25T01:27:41;7.40;99.90
13464;DHT22;6804;48.774;9.174;2024-03-25T01:30:12;7.40;99.90
13464;DHT22;6804;48.774;9.174;2024-03-25T01:32:38;7.50;99.90
13464;DHT22;6804;48.774;9.174;2024-03-25T01:35:07;7.40;99.90
13464;DHT22;6804;48.774;9.174;2024-03-25T01:37:34;7.50;99.90
13464;DHT22;6804;48.774;9.174;2024-03-25T01:40:08;7.50;99.90
13464;DHT22;6804;48.774;9.174;2024-03-25T01:42:36;7.40;99.90
13464;DHT22;6804;48.774;9.174;2024-03-25T01:45:05;7.50;99.90
13464;DHT22;6804;48.774;9.174;2024-03-25T01:47:31;7.50;99.90
13464;DHT22;6804;48.774;9.174;2024-03-25T01:50:05;7.50;99.90
13464;DHT22;6804;48.774;9.174;2024-03-25T01:52:33;7.50;99.90
13464;DHT22;6804;48.774;9.174;2024-03-25T01:55:24;7.50;99.90
13464;DHT22;6804;48.774;9.174;2024-03-25T01:57:51;7.50;99.90
13464;DHT22;6804;48.774;9.174;2024-03-25T02:00:21;7.50;99.90
13464;DHT22;6804;48.774;9.174;2024-03-25T02:02:47;7.50;99.90
13464;DHT22;6804;48.774;9.174;2024-03-25T02:05:15;7.40;99.90
13464;DHT22;6804;48.774;9.174;2024-03-25T02:07:41;7.50;99.90
13464;DHT22;6804;48.774;9.174;2024-03-25T02:10:12;7.50;99.90
13464;DHT22;6804;48.774;9.174;2024-03-25T02:12:46;7.40;99.90
13464;DHT22;6804;48.774;9.174;2024-03-25T02:15:14;7.50;99.90
13464;DHT22;6804;48.774;9.174;2024-03-25T02:17:41;7.50;99.90
13464;DHT22;6804;48.774;9.174;2024-03-25T02:20:10;7.50;99.90
13464;DHT22;6804;48.774;9.174;2024-03-25T02:22:39;7.50;99.90
13464;DHT22;6804;48.774;9.174;2024-03-25T02:25:08;7.50;99.90
13464;DHT22;6804;48.774;9.174;2024-03-25T02:27:37;7.50;99.90
13464;DHT22;6804;48.774;9.174;2024-03-25T02:30:09;7.50;99.90
13464;DHT22;6804;48.774;9.174;2024-03-25T02:32:38;7.50;99.90
13464;DHT22;6804;48.774;9.174;2024-03-25T02:35:07;7.50;99.90
13464;DHT22;6804;48.774;9.174;2024-03-25T02:37:36;7.50;99.90
13464;DHT22;6804;48.774;9.174;2024-03-25T02:40:05;7.50;99.90
13464;DHT22;6804;48.774;9.174;2024-03-25T02:42:33;7.50;99.90
13464;DHT22;6804;48.774;9.174;2024-03-25T02:45:06;7.40;99.90
13464;DHT22;6804;48.774;9.174;2024-03-25T02:47:51;7.40;99.90
13464;DHT22;6804;48.774;9.174;2024-03-25T02:50:26;7.50;99.90
13464;DHT22;6804;48.774;9.174;2024-03-25T02:52:53;7.50;99.90
13464;DHT22;6804;48.774;9.174;2024-03-25T02:55:21;7.60;99.90
13464;DHT22;6804;48.774;9.174;2024-03-25T02:57:50;7.60;99.90
13464;DHT22;6804;48.774;9.174;2024-03-25T03:00:21;7.60;99.90
13464;DHT22;6804;48.774;9.174;2024-03-25T03:02:50;7.60;99.90
13464;DHT22;6804;48.774;9.174;2024-03-25T03:05:21;7.60;99.90
13464;DHT22;6804;48.774;9.174;2024-03-25T03:07:48;7.60;99.90
13464;DHT22;6804;48.774;9.174;2024-03-25T03:10:15;7.60;99.90
13464;DHT22;6804;48.774;9.174;2024-03-25T03:12:42;7.60;99.90
13464;DHT22;6804;48.774;9.174;2024-03-25T03:15:17;7.60;99.90
13464;DHT22;6804;48.774;9.174;2024-03-25T03:17:46;7.60;99.90
13464;DHT22;6804;48.774;9.174;2024-03-25T03:20:15;7.70;99.90
13464;DHT22;6804;48.774;9.174;2024-03-25T03:22:46;7.70;99.90
13464;DHT22;6804;48.774;9.174;2024-03-25T03:25:13;7.70;99.90
13464;DHT22;6804;48.774;9.174;2024-03-25T03:27:42;7.70;99.90
13464;DHT22;6804;48.774;9.174;2024-03-25T03:30:10;7.70;99.90
13464;DHT22;6804;48.774;9.174;2024-03-25T03:32:38;7.70;99.90
13464;DHT22;6804;48.774;9.174;2024-03-25T03:35:07;7.70;99.90
13464;DHT22;6804;48.774;9.174;2024-03-25T03:37:34;7.70;99.90
13464;DHT22;6804;48.774;9.174;2024-03-25T03:40:03;7.70;99.90
13464;DHT22;6804;48.774;9.174;2024-03-25T03:42:32;7.70;99.90
13464;DHT22;6804;48.774;9.174;2024-03-25T03:44:59;7.70;99.90
13464;DHT22;6804;48.774;9.174;2024-03-25T03:47:28;7.60;99.90
13464;DHT22;6804;48.774;9.174;2024-03-25T03:49:56;7.60;99.90
13464;DHT22;6804;48.774;9.174;2024-03-25T03:52:27;7.60;99.90
13464;DHT22;6804;48.774;9.174;2024-03-25T03:54:57;7.50;99.90
13464;DHT22;6804;48.774;9.174;2024-03-25T03:57:23;7.50;99.90
13464;DHT22;6804;48.774;9.174;2024-03-25T03:59:53;7.50;99.90
13464;DHT22;6804;48.774;9.174;2024-03-25T04:02:19;7.50;99.90
13464;DHT22;6804;48.774;9.174;2024-03-25T04:04:46;7.50;99.90
13464;DHT22;6804;48.774;9.174;2024-03-25T04:07:14;7.50;99.90
13464;DHT22;6804;48.774;9.174;2024-03-25T04:09:46;7.50;99.90
13464;DHT22;6804;48.774;9.174;2024-03-25T04:12:18;7.40;99.90
13464;DHT22;6804;48.774;9.174;2024-03-25T04:14:46;7.40;99.90
13464;DHT22;6804;48.774;9.174;2024-03-25T04:17:13;7.40;99.90
13464;DHT22;6804;48.774;9.174;2024-03-25T04:19:40;7.40;99.90
13464;DHT22;6804;48.774;9.174;2024-03-25T04:22:07;7.30;99.90
13464;DHT22;6804;48.774;9.174;2024-03-25T04:24:35;7.30;99.90
13464;DHT22;6804;48.774;9.174;2024-03-25T04:27:03;7.30;99.90
13464;DHT22;6804;48.774;9.174;2024-03-25T04:29:30;7.30;99.90
13464;DHT22;6804;48.774;9.174;2024-03-25T04:31:59;7.40;99.90
13464;DHT22;6804;48.774;9.174;2024-03-25T04:34:27;7.40;99.90
13464;DHT22;6804;48.774;9.174;2024-03-25T04:36:54;7.30;99.90
13464;DHT22;6804;48.774;9.174;2024-03-25T04:39:24;7.30;99.90
13464;DHT22;6804;48.774;9.174;2024-03-25T04:41:50;7.30;99.90
13464;DHT22;6804;48.774;9.174;2024-03-25T04:44:20;7.30;99.90
13464;DHT22;6804;48.774;9.174;2024-03-25T04:46:49;7.30;99.90
13464;DHT22;6804;48.774;9.174;2024-03-25T04:49:17;7.30;99.90
13464;DHT22;6804;48.774;9.174;2024-03-25T04:51:43;7.30;99.90
13464;DHT22;6804;48.774;9.174;2024-03-25T04:54:09;7.30;99.90
13464;DHT22;6804;48.774;9.174;2024-03-25T04:56:38;7.40;99.90
13464;DHT22;6804;48.774;9.174;2024-03-25T04:59:05;7.30;99.90
13464;DHT22;6804;48.774;9.174;2024-03-25T05:01:34;7.40;99.90
13464;DHT22;6804;48.774;9.174;2024-03-25T05:04:01;7.30;99.90
13464;DHT22;6804;48.774;9.174;2024-03-25T05:06:27;7.30;99.90
13464;DHT22;6804;48.774;9.174;2024-03-25T05:08:53;7.30;99.90
13464;DHT22;6804;48.774;9.174;2024-03-25T05:11:20;7.30;99.90
13464;DHT22;6804;48.774;9.174;2024-03-25T05:13:46;7.20;99.90
13464;DHT22;6804;48.774;9.174;2024-03-25T05:16:12;7.30;99.90
13464;DHT22;6804;48.774;9.174;2024-03-25T05:18:39;7.30;99.90
13464;DHT22;6804;48.774;9.174;2024-03-25T05:21:06;7.30;99.90
13464;DHT22;6804;48.774;9.174;2024-03-25T05:23:32;7.30;99.90
13464;DHT22;6804;48.774;9.174;2024-03-25T05:25:58;7.30;99.90
13464;DHT22;6804;48.774;9.174;2024-03-25T05:28:25;7.20;99.90
13464;DHT22;6804;48.774;9.174;2024-03-25T05:30:54;7.30;99.90
13464;DHT22;6804;48.774;9.174;2024-03-25T05:33:20;7.30;99.90
13464;DHT22;6804;48.774;9.174;2024-03-25T05:35:51;7.30;99.90
13464;DHT22;6804;48.774;9.174;2024-03-25T05:38:17;7.30;99.90
13464;DHT22;6804;48.774;9.174;2024-03-25T05:40:45;7.20;99.90
13464;DHT22;6804;48.774;9.174;2024-03-25T05:43:12;7.20;99.90
13464;DHT22;6804;48.774;9.174;2024-03-25T05:45:38;7.20;99.90
13464;DHT22;6804;48.774;9.174;2024-03-25T05:48:12;7.20;99.90
13464;DHT22;6804;48.774;9.174;2024-03-25T05:50:38;7.30;99.90
13464;DHT22;6804;48.774;9.174;2024-03-25T05:53:08;7.30;99.90
13464;DHT22;6804;48.774;9.174;2024-03-25T05:55:35;7.40;99.90
13464;DHT22;6804;48.774;9.174;2024-03-25T05:58:01;7.40;99.90
13464;DHT22;6804;48.774;9.174;2024-03-25T06:00:31;7.40;99.90
13464;DHT22;6804;48.774;9.174;2024-03-25T06:03:00;7.40;99.90
13464;DHT22;6804;48.774;9.174;2024-03-25T06:05:26;7.40;99.90
13464;DHT22;6804;48.774;9.174;2024-03-25T06:07:52;7.40;99.90
13464;DHT22;6804;48.774;9.174;2024-03-25T06:10:20;7.40;99.90
13464;DHT22;6804;48.774;9.174;2024-03-25T06:12:47;7.40;99.90
13464;DHT22;6804;48.774;9.174;2024-03-25T06:15:17;7.50;99.90
13464;DHT22;6804;48.774;9.174;2024-03-25T06:17:44;7.60;99.90
13464;DHT22;6804;48.774;9.174;2024-03-25T06:20:13;7.60;99.90
13464;DHT22;6804;48.774;9.174;2024-03-25T06:22:45;7.60;99.90
13464;DHT22;6804;48.774;9.174;2024-03-25T06:25:11;7.70;99.90
13464;DHT22;6804;48.774;9.174;2024-03-25T06:27:39;7.70;99.90
13464;DHT22;6804;48.774;9.174;2024-03-25T06:30:08;7.70;99.90
13464;DHT22;6804;48.774;9.174;2024-03-25T06:32:53;7.80;99.90
13464;DHT22;6804;48.774;9.174;2024-03-25T06:35:42;7.90;99.90
13464;DHT22;6804;48.774;9.174;2024-03-25T06:38:27;8.00;99.90
13464;DHT22;6804;48.774;9.174;2024-03-25T06:40:54;8.20;99.90
13464;DHT22;6804;48.774;9.174;2024-03-25T06:43:21;8.40;99.90
13464;DHT22;6804;48.774;9.174;2024-03-25T06:45:49;8.50;99.90
13464;DHT22;6804;48.774;9.174;2024-03-25T06:48:19;8.50;99.90
13464;DHT22;6804;48.774;9.174;2024-03-25T06:50:53;8.50;99.90
13464;DHT22;6804;48.774;9.174;2024-03-25T06:53:19;8.50;99.90
13464;DHT22;6804;48.774;9.174;2024-03-25T06:55:55;8.50;99.90
13464;DHT22;6804;48.774;9.174;2024-03-25T06:58:25;8.50;99.90
13464;DHT22;6804;48.774;9.174;2024-03-25T07:00:52;8.70;99.90
13464;DHT22;6804;48.774;9.174;2024-03-25T07:03:23;8.90;99.90
13464;DHT22;6804;48.774;9.174;2024-03-25T07:05:51;9.20;99.90
13464;DHT22;6804;48.774;9.174;2024-03-25T07:08:21;9.40;99.90
13464;DHT22;6804;48.774;9.174;2024-03-25T07:10:48;9.60;99.90
13464;DHT22;6804;48.774;9.174;2024-03-25T07:13:15;9.70;99.90
13464;DHT22;6804;48.774;9.174;2024-03-25T07:15:43;9.80;99.90
13464;DHT22;6804;48.774;9.174;2024-03-25T07:18:11;10.00;99.90
13464;DHT22;6804;48.774;9.174;2024-03-25T07:20:38;10.20;99.90
13464;DHT22;6804;48.774;9.174;2024-03-25T07:23:05;10.40;99.90
13464;DHT22;6804;48.774;9.174;2024-03-25T07:25:32;10.60;99.90
13464;DHT22;6804;48.774;9.174;2024-03-25T07:28:01;10.90;99.90
13464;DHT22;6804;48.774;9.174;2024-03-25T07:30:28;11.10;99.90
13464;DHT22;6804;48.774;9.174;2024-03-25T07:32:57;11.40;99.90
13464;DHT22;6804;48.774;9.174;2024-03-25T07:35:25;11.60;99.90
13464;DHT22;6804;48.774;9.174;2024-03-25T07:37:54;11.70;99.90
13464;DHT22;6804;48.774;9.174;2024-03-25T07:40:21;11.90;99.90
13464;DHT22;6804;48.774;9.174;2024-03-25T07:42:49;11.90;99.90
13464;DHT22;6804;48.774;9.174;2024-03-25T07:45:15;12.00;99.90
13464;DHT22;6804;48.774;9.174;2024-03-25T07:47:46;12.00;99.90
13464;DHT22;6804;48.774;9.174;2024-03-25T07:50:14;12.00;99.90
13464;DHT22;6804;48.774;9.174;2024-03-25T07:52:41;11.90;99.90
13464;DHT22;6804;48.774;9.174;2024-03-25T07:55:10;11.90;99.90
13464;DHT22;6804;48.774;9.174;2024-03-25T07:57:39;12.00;99.90
13464;DHT22;6804;48.774;9.174;2024-03-25T08:00:07;12.20;99.90
13464;DHT22;6804;48.774;9.174;2024-03-25T08:02:34;12.40;99.90
13464;DHT22;6804;48.774;9.174;2024-03-25T08:05:05;12.60;99.90
13464;DHT22;6804;48.774;9.174;2024-03-25T08:07:34;12.80;99.90
13464;DHT22;6804;48.774;9.174;2024-03-25T08:10:02;13.10;99.90
13464;DHT22;6804;48.774;9.174;2024-03-25T08:12:29;13.40;99.90
13464;DHT22;6804;48.774;9.174;2024-03-25T08:14:56;13.60;99.90
13464;DHT22;6804;48.774;9.174;2024-03-25T08:17:23;13.50;99.70
13464;DHT22;6804;48.774;9.174;2024-03-25T08:19:52;13.60;99.90
13464;DHT22;6804;48.774;9.174;2024-03-25T08:22:19;13.50;99.90
13464;DHT22;6804;48.774;9.174;2024-03-25T08:24:47;13.40;98.90
13464;DHT22;6804;48.774;9.174;2024-03-25T08:27:14;13.30;98.80
13464;DHT22;6804;48.774;9.174;2024-03-25T08:29:44;13.20;98.30
13464;DHT22;6804;48.774;9.174;2024-03-25T08:32:11;13.30;98.40
13464;DHT22;6804;48.774;9.174;2024-03-25T08:34:38;13.20;97.80
13464;DHT22;6804;48.774;9.174;2024-03-25T08:37:04;13.10;97.80
13464;DHT22;6804;48.774;9.174;2024-03-25T08:39:31;13.10;97.10
13464;DHT22;6804;48.774;9.174;2024-03-25T08:42:04;13.30;97.00
13464;DHT22;6804;48.774;9.174;2024-03-25T08:44:34;13.40;96.80
13464;DHT22;6804;48.774;9.174;2024-03-25T08:47:01;13.50;95.00
13464;DHT22;6804;48.774;9.174;2024-03-25T08:49:28;13.50;95.70
13464;DHT22;6804;48.774;9.174;2024-03-25T08:51:54;13.50;95.50
13464;DHT22;6804;48.774;9.174;2024-03-25T08:54:22;13.40;96.00
13464;DHT22;6804;48.774;9.174;2024-03-25T08:56:52;13.40;96.70
13464;DHT22;6804;48.774;9.174;2024-03-25T08:59:20;13.50;96.70
13464;DHT22;6804;48.774;9.174;2024-03-25T09:01:47;13.50;96.10
13464;DHT22;6804;48.774;9.174;2024-03-25T09:04:14;13.40;96.10
13464;DHT22;6804;48.774;9.174;2024-03-25T09:06:44;13.30;96.60
13464;DHT22;6804;48.774;9.174;2024-03-25T09:09:18;13.30;96.60
13464;DHT22;6804;48.774;9.174;2024-03-25T09:12:05;13.30;95.50
13464;DHT22;6804;48.774;9.174;2024-03-25T09:14:33;13.10;96.20
13464;DHT22;6804;48.774;9.174;2024-03-25T09:17:02;13.00;96.80
13464;DHT22;6804;48.774;9.174;2024-03-25T09:19:28;13.00;95.00
13464;DHT22;6804;48.774;9.174;2024-03-25T09:21:55;13.10;95.50
13464;DHT22;6804;48.774;9.174;2024-03-25T09:24:28;12.90;92.60
13464;DHT22;6804;48.774;9.174;2024-03-25T09:26:57;12.50;92.80
13464;DHT22;6804;48.774;9.174;2024-03-25T09:29:24;12.60;94.80
13464;DHT22;6804;48.774;9.174;2024-03-25T09:31:53;12.90;94.60
13464;DHT22;6804;48.774;9.174;2024-03-25T09:34:24;13.20;94.20
13464;DHT22;6804;48.774;9.174;2024-03-25T09:36:51;13.40;91.90
13464;DHT22;6804;48.774;9.174;2024-03-25T09:39:28;13.40;91.80
13464;DHT22;6804;48.774;9.174;2024-03-25T09:42:02;13.30;92.70
13464;DHT22;6804;48.774;9.174;2024-03-25T09:44:31;13.30;92.80
13464;DHT22;6804;48.774;9.174;2024-03-25T09:47:00;13.50;92.70
13464;DHT22;6804;48.774;9.174;2024-03-25T09:49:28;13.70;93.40
13464;DHT22;6804;48.774;9.174;2024-03-25T09:51:57;13.80;93.60
13464;DHT22;6804;48.774;9.174;2024-03-25T09:54:25;13.90;93.70
13464;DHT22;6804;48.774;9.174;2024-03-25T09:56:54;14.10;91.70
13464;DHT22;6804;48.774;9.174;2024-03-25T09:59:25;13.80;91.80
13464;DHT22;6804;48.774;9.174;2024-03-25T10:01:54;13.60;91.50
13464;DHT22;6804;48.774;9.174;2024-03-25T10:04:26;12.50;92.40
13464;DHT22;6804;48.774;9.174;2024-03-25T10:06:56;12.40;92.70
13464;DHT22;6804;48.774;9.174;2024-03-25T10:09:25;12.20;92.90
13464;DHT22;6804;48.774;9.174;2024-03-25T10:11:53;12.10;94.20
13464;DHT22;6804;48.774;9.174;2024-03-25T10:14:19;12.20;93.60
13464;DHT22;6804;48.774;9.174;2024-03-25T10:16:46;12.00;93.30
13464;DHT22;6804;48.774;9.174;2024-03-25T10:19:17;11.40;94.20
13464;DHT22;6804;48.774;9.174;2024-03-25T10:21:47;11.20;96.00
13464;DHT22;6804;48.774;9.174;2024-03-25T10:24:17;11.40;95.20
13464;DHT22;6804;48.774;9.174;2024-03-25T10:26:49;11.60;95.20
13464;DHT22;6804;48.774;9.174;2024-03-25T10:29:15;11.70;95.40
13464;DHT22;6804;48.774;9.174;2024-03-25T10:31:43;11.60;94.60
13464;DHT22;6804;48.774;9.174;2024-03-25T10:34:09;11.60;94.50
13464;DHT22;6804;48.774;9.174;2024-03-25T10:36:39;11.40;94.80
13464;DHT22;6804;48.774;9.174;2024-03-25T10:39:07;11.50;95.30
13464;DHT22;6804;48.774;9.174;2024-03-25T10:41:35;11.60;95.20
13464;DHT22;6804;48.774;9.174;2024-03-25T10:44:03;11.60;94.60
13464;DHT22;6804;48.774;9.174;2024-03-25T10:46:36;11.10;95.90
13464;DHT22;6804;48.774;9.174;2024-03-25T10:49:21;11.20;95.60
13464;DHT22;6804;48.774;9.174;2024-03-25T10:51:50;11.10;95.40
13464;DHT22;6804;48.774;9.174;2024-03-25T10:54:19;11.10;96.00
13464;DHT22;6804;48.774;9.174;2024-03-25T10:56:49;11.20;95.50
13464;DHT22;6804;48.774;9.174;2024-03-25T10:59:22;11.30;95.90
13464;DHT22;6804;48.774;9.174;2024-03-25T11:01:58;11.50;94.30
13464;DHT22;6804;48.774;9.174;2024-03-25T11:04:29;11.50;94.30
13464;DHT22;6804;48.774;9.174;2024-03-25T11:07:07;11.60;93.70
13464;DHT22;6804;48.774;9.174;2024-03-25T11:09:38;11.60;94.00
13464;DHT22;6804;48.774;9.174;2024-03-25T11:12:09;11.70;93.70
13464;DHT22;6804;48.774;9.174;2024-03-25T11:14:38;11.60;94.20
13464;DHT22;6804;48.774;9.174;2024-03-25T11:17:26;11.40;93.60
13464;DHT22;6804;48.774;9.174;2024-03-25T11:19:53;11.30;95.00
13464;DHT22;6804;48.774;9.174;2024-03-25T11:22:27;11.20;94.50
13464;DHT22;6804;48.774;9.174;2024-03-25T11:25:05;10.90;95.40
13464;DHT22;6804;48.774;9.174;2024-03-25T11:27:43;10.90;95.00
13464;DHT22;6804;48.774;9.174;2024-03-25T11:30:11;10.80;95.00
13464;DHT22;6804;48.774;9.174;2024-03-25T11:32:46;10.80;95.60
13464;DHT22;6804;48.774;9.174;2024-03-25T11:35:16;10.90;95.10
13464;DHT22;6804;48.774;9.174;2024-03-25T11:37:44;11.20;95.50
13464;DHT22;6804;48.774;9.174;2024-03-25T11:40:13;11.50;95.10
13464;DHT22;6804;48.774;9.174;2024-03-25T11:42:41;11.60;94.40
13464;DHT22;6804;48.774;9.174;2024-03-25T11:45:14;11.50;94.10
13464;DHT22;6804;48.774;9.174;2024-03-25T11:47:42;11.50;94.80
13464;DHT22;6804;48.774;9.174;2024-03-25T11:50:10;11.60;94.50
13464;DHT22;6804;48.774;9.174;2024-03-25T11:52:40;11.50;93.80
13464;DHT22;6804;48.774;9.174;2024-03-25T11:55:08;11.40;93.80
13464;DHT22;6804;48.774;9.174;2024-03-25T11:57:39;11.30;94.00
13464;DHT22;6804;48.774;9.174;2024-03-25T12:00:09;11.20;93.80
13464;DHT22;6804;48.774;9.174;2024-03-25T12:02:43;10.80;93.90
13464;DHT22;6804;48.774;9.174;2024-03-25T12:05:13;10.80;94.20
13464;DHT22;6804;48.774;9.174;2024-03-25T12:07:45;10.90;94.30
13464;DHT22;6804;48.774;9.174;2024-03-25T12:10:11;11.00;94.00
13464;DHT22;6804;48.774;9.174;2024-03-25T12:13:02;11.00;93.80
13464;DHT22;6804;48.774;9.174;2024-03-25T12:15:29;10.80;94.30
13464;DHT22;6804;48.774;9.174;2024-03-25T12:18:02;10.80;94.10
13464;DHT22;6804;48.774;9.174;2024-03-25T12:20:30;10.90;94.50
13464;DHT22;6804;48.774;9.174;2024-03-25T12:23:00;11.00;94.50
13464;DHT22;6804;48.774;9.174;2024-03-25T12:25:28;11.20;94.70
13464;DHT22;6804;48.774;9.174;2024-03-25T12:27:55;11.30;94.60
13464;DHT22;6804;48.774;9.174;2024-03-25T12:30:30;11.50;94.90
13464;DHT22;6804;48.774;9.174;2024-03-25T12:33:00;11.60;95.00
13464;DHT22;6804;48.774;9.174;2024-03-25T12:35:28;11.70;94.70
13464;DHT22;6804;48.774;9.174;2024-03-25T12:38:01;11.80;94.50
13464;DHT22;6804;48.774;9.174;2024-03-25T12:40:29;11.90;94.10
13464;DHT22;6804;48.774;9.174;2024-03-25T12:42:57;11.90;93.50
13464;DHT22;6804;48.774;9.174;2024-03-25T12:45:25;12.00;93.90
13464;DHT22;6804;48.774;9.174;2024-03-25T12:47:56;12.20;94.00
13464;DHT22;6804;48.774;9.174;2024-03-25T12:50:23;12.40;93.80
13464;DHT22;6804;48.774;9.174;2024-03-25T12:52:50;12.50;93.10
13464;DHT22;6804;48.774;9.174;2024-03-25T12:55:17;12.50;93.50
13464;DHT22;6804;48.774;9.174;2024-03-25T12:57:45;12.60;93.70
13464;DHT22;6804;48.774;9.174;2024-03-25T13:00:14;12.90;92.20
13464;DHT22;6804;48.774;9.174;2024-03-25T13:02:43;13.00;92.40
13464;DHT22;6804;48.774;9.174;2024-03-25T13:05:13;13.10;90.80
13464;DHT22;6804;48.774;9.174;2024-03-25T13:07:42;13.30;88.70
13464;DHT22;6804;48.774;9.174;2024-03-25T13:10:11;13.10;90.10
13464;DHT22;6804;48.774;9.174;2024-03-25T13:12:40;13.30;88.90
13464;DHT22;6804;48.774;9.174;2024-03-25T13:15:11;13.00;86.70
13464;DHT22;6804;48.774;9.174;2024-03-25T13:17:42;12.90;86.90
13464;DHT22;6804;48.774;9.174;2024-03-25T13:20:09;12.90;87.10
13464;DHT22;6804;48.774;9.174;2024-03-25T13:22:36;12.60;85.40
13464;DHT22;6804;48.774;9.174;2024-03-25T13:25:03;12.20;86.00
13464;DHT22;6804;48.774;9.174;2024-03-25T13:27:31;12.30;86.40
13464;DHT22;6804;48.774;9.174;2024-03-25T13:29:58;12.30;86.50
13464;DHT22;6804;48.774;9.174;2024-03-25T13:32:25;12.30;87.10
13464;DHT22;6804;48.774;9.174;2024-03-25T13:34:58;12.30;85.20
13464;DHT22;6804;48.774;9.174;2024-03-25T13:37:25;12.30;84.20
13464;DHT22;6804;48.774;9.174;2024-03-25T13:39:52;12.40;85.60
13464;DHT22;6804;48.774;9.174;2024-03-25T13:42:19;12.70;89.50
13464;DHT22;6804;48.774;9.174;2024-03-25T13:44:48;12.30;85.50
13464;DHT22;6804;48.774;9.174;2024-03-25T13:47:22;12.10;86.50
13464;DHT22;6804;48.774;9.174;2024-03-25T13:50:02;12.20;87.30
13464;DHT22;6804;48.774;9.174;2024-03-25T13:52:32;12.60;89.30
13464;DHT22;6804;48.774;9.174;2024-03-25T13:55:02;13.00;88.10
13464;DHT22;6804;48.774;9.174;2024-03-25T13:57:29;13.30;89.20
13464;DHT22;6804;48.774;9.174;2024-03-25T13:59:56;13.50;85.90
13464;DHT22;6804;48.774;9.174;2024-03-25T14:02:23;13.60;84.70
13464;DHT22;6804;48.774;9.174;2024-03-25T14:04:52;13.70;84.50
13464;DHT22;6804;48.774;9.174;2024-03-25T14:07:23;13.60;82.00
13464;DHT22;6804;48.774;9.174;2024-03-25T14:10:12;13.40;82.60
13464;DHT22;6804;48.774;9.174;2024-03-25T14:12:42;13.30;84.00
13464;DHT22;6804;48.774;9.174;2024-03-25T14:15:12;13.50;86.40
13464;DHT22;6804;48.774;9.174;2024-03-25T14:17:57;13.80;85.10
13464;DHT22;6804;48.774;9.174;2024-03-25T14:20:23;13.90;84.70
13464;DHT22;6804;48.774;9.174;2024-03-25T14:22:52;14.10;87.50
13464;DHT22;6804;48.774;9.174;2024-03-25T14:25:22;14.10;85.30
13464;DHT22;6804;48.774;9.174;2024-03-25T14:27:49;13.60;83.00
13464;DHT22;6804;48.774;9.174;2024-03-25T14:30:16;13.40;82.90
13464;DHT22;6804;48.774;9.174;2024-03-25T14:32:43;13.00;83.10
13464;DHT22;6804;48.774;9.174;2024-03-25T14:35:13;12.90;85.30
13464;DHT22;6804;48.774;9.174;2024-03-25T14:37:42;13.00;84.70
13464;DHT22;6804;48.774;9.174;2024-03-25T14:40:17;13.00;85.40
13464;DHT22;6804;48.774;9.174;2024-03-25T14:42:43;13.20;86.60
13464;DHT22;6804;48.774;9.174;2024-03-25T14:45:12;13.50;85.90
13464;DHT22;6804;48.774;9.174;2024-03-25T14:47:39;13.80;84.60
13464;DHT22;6804;48.774;9.174;2024-03-25T14:50:09;14.00;83.90
13464;DHT22;6804;48.774;9.174;2024-03-25T14:52:37;14.10;84.40
13464;DHT22;6804;48.774;9.174;2024-03-25T14:55:06;14.20;84.40
13464;DHT22;6804;48.774;9.174;2024-03-25T14:57:35;13.90;82.60
13464;DHT22;6804;48.774;9.174;2024-03-25T15:00:02;13.40;83.50
13464;DHT22;6804;48.774;9.174;2024-03-25T15:02:30;12.90;84.10
13464;DHT22;6804;48.774;9.174;2024-03-25T15:04:57;12.90;86.00
13464;DHT22;6804;48.774;9.174;2024-03-25T15:07:26;12.80;85.30
13464;DHT22;6804;48.774;9.174;2024-03-25T15:09:53;12.70;85.60
13464;DHT22;6804;48.774;9.174;2024-03-25T15:12:22;12.70;86.40
13464;DHT22;6804;48.774;9.174;2024-03-25T15:14:53;12.70;86.40
13464;DHT22;6804;48.774;9.174;2024-03-25T15:17:20;13.00;87.50
13464;DHT22;6804;48.774;9.174;2024-03-25T15:19:47;13.30;87.00
13464;DHT22;6804;48.774;9.174;2024-03-25T15:22:14;13.50;84.90
13464;DHT22;6804;48.774;9.174;2024-03-25T15:24:41;13.50;84.10
13464;DHT22;6804;48.774;9.174;2024-03-25T15:27:08;13.50;82.70
13464;DHT22;6804;48.774;9.174;2024-03-25T15:29:35;13.20;82.20
13464;DHT22;6804;48.774;9.174;2024-03-25T15:32:06;13.10;82.10
13464;DHT22;6804;48.774;9.174;2024-03-25T15:34:34;13.00;83.90
13464;DHT22;6804;48.774;9.174;2024-03-25T15:37:01;13.00;83.80
13464;DHT22;6804;48.774;9.174;2024-03-25T15:39:28;12.80;82.70
13464;DHT22;6804;48.774;9.174;2024-03-25T15:41:56;12.70;82.90
13464;DHT22;6804;48.774;9.174;2024-03-25T15:44:25;12.80;83.70
13464;DHT22;6804;48.774;9.174;2024-03-25T15:46:54;12.90;83.10
13464;DHT22;6804;48.774;9.174;2024-03-25T15:49:26;12.90;83.30
13464;DHT22;6804;48.774;9.174;2024-03-25T15:51:56;12.90;83.90
13464;DHT22;6804;48.774;9.174;2024-03-25T15:54:24;12.70;83.70
13464;DHT22;6804;48.774;9.174;2024-03-25T15:56:52;12.80;83.90
13464;DHT22;6804;48.774;9.174;2024-03-25T15:59:22;12.80;83.20
13464;DHT22;6804;48.774;9.174;2024-03-25T16:01:49;12.70;82.70
13464;DHT22;6804;48.774;9.174;2024-03-25T16:04:16;12.70;82.40